Time,TemperatureF,DewpointF,PressureIn,WindDirection,WindDirectionDegrees,WindSpeedMPH,WindSpeedGustMPH,Humidity,HourlyPrecipIn,Conditions,Clouds,dailyrainin,SoftwareType,DateUTC
2013-09-08 00:02:00,75.6,69.4,29.69,SSW,203,2.5,4.0,81,0.00,,,0.00,WUHU216HW,2013-09-08 05:02:00,
2013-09-08 00:07:00,76.0,69.8,29.69,South,180,4.0,4.0,81,0.00,,,0.00,WUHU216HW,2013-09-08 05:07:00,
2013-09-08 00:12:00,76.1,69.9,29.70,SE,135,2.9,4.0,81,0.00,,,0.00,WUHU216HW,2013-09-08 05:12:00,
2013-09-08 00:17:00,76.1,69.9,29.69,SE,135,1.8,3.4,81,0.00,,,0.00,WUHU216HW,2013-09-08 05:17:00,
2013-09-08 00:22:00,76.1,69.9,29.69,SSE,158,1.1,3.4,81,0.00,,,0.00,WUHU216HW,2013-09-08 05:22:00,
2013-09-08 00:27:00,76.0,69.8,29.69,SE,135,0.7,2.5,81,0.00,,,0.00,WUHU216HW,2013-09-08 05:27:00,
2013-09-08 00:32:00,76.0,69.8,29.69,South,180,0.7,1.8,81,0.00,,,0.00,WUHU216HW,2013-09-08 05:32:00,
2013-09-08 00:37:00,76.0,69.8,29.69,SSW,203,0.0,1.1,81,0.00,,,0.00,WUHU216HW,2013-09-08 05:37:00,
2013-09-08 00:42:00,76.0,69.8,29.69,SE,135,0.4,0.7,81,0.00,,,0.00,WUHU216HW,2013-09-08 05:42:00,
2013-09-08 00:47:00,76.0,69.8,29.68,East,90,1.1,1.6,81,0.00,,,0.00,WUHU216HW,2013-09-08 05:47:00,
2013-09-08 00:52:00,76.0,69.8,29.68,SE,135,1.1,2.5,81,0.00,,,0.00,WUHU216HW,2013-09-08 05:52:00,
2013-09-08 00:57:00,76.0,69.8,29.68,SW,225,0.9,2.5,81,0.00,,,0.00,WUHU216HW,2013-09-08 05:57:00,
2013-09-08 01:02:00,76.0,69.8,29.68,WSW,248,2.5,2.5,81,0.00,,,0.00,WUHU216HW,2013-09-08 06:02:00,
2013-09-08 01:07:00,76.0,69.8,29.68,SW,225,1.8,2.7,81,0.00,,,0.00,WUHU216HW,2013-09-08 06:07:00,
2013-09-08 01:12:00,76.1,69.9,29.68,SW,225,0.9,2.7,81,0.00,,,0.00,WUHU216HW,2013-09-08 06:12:00,
2013-09-08 01:17:00,76.0,69.8,29.68,SSE,158,1.8,2.2,81,0.00,,,0.00,WUHU216HW,2013-09-08 06:17:00,
2013-09-08 01:22:00,75.6,69.4,29.68,SE,135,1.6,2.5,81,0.00,,,0.00,WUHU216HW,2013-09-08 06:22:00,
2013-09-08 01:27:00,75.2,69.5,29.68,SE,135,1.3,2.5,82,0.00,,,0.00,WUHU216HW,2013-09-08 06:27:00,
2013-09-08 01:32:00,75.2,69.8,29.68,SE,135,3.4,3.4,83,0.00,,,0.00,WUHU216HW,2013-09-08 06:32:00,
2013-09-08 01:37:00,75.1,70.3,29.68,SE,135,3.4,3.4,85,0.00,,,0.00,WUHU216HW,2013-09-08 06:37:00,
2013-09-08 01:42:00,75.1,70.3,29.68,ESE,113,2.7,4.0,85,0.00,,,0.00,WUHU216HW,2013-09-08 06:42:00,
2013-09-08 01:47:00,74.9,70.1,29.68,SE,135,3.8,4.7,85,0.00,,,0.00,WUHU216HW,2013-09-08 06:47:00,
2013-09-08 01:52:00,74.9,70.5,29.68,ESE,113,2.9,4.7,86,0.00,,,0.00,WUHU216HW,2013-09-08 06:52:00,
2013-09-08 01:57:00,74.9,70.1,29.68,SE,135,2.2,3.8,85,0.00,,,0.00,WUHU216HW,2013-09-08 06:57:00,
2013-09-08 02:02:00,74.9,70.5,29.68,ESE,113,2.2,3.6,86,0.00,,,0.00,WUHU216HW,2013-09-08 07:02:00,
2013-09-08 02:07:00,74.9,70.1,29.68,ESE,113,1.3,3.6,85,0.00,,,0.00,WUHU216HW,2013-09-08 07:07:00,
2013-09-08 02:12:00,75.2,70.5,29.68,SE,135,1.8,2.5,85,0.00,,,0.00,WUHU216HW,2013-09-08 07:12:00,
2013-09-08 02:17:00,75.6,70.8,29.68,SE,135,1.6,2.5,85,0.00,,,0.00,WUHU216HW,2013-09-08 07:17:00,
2013-09-08 02:22:00,75.6,70.5,29.68,South,180,0.7,2.7,84,0.00,,,0.00,WUHU216HW,2013-09-08 07:22:00,
2013-09-08 02:27:00,75.4,70.3,29.68,SE,135,0.2,2.7,84,0.00,,,0.00,WUHU216HW,2013-09-08 07:27:00,
2013-09-08 02:32:00,75.4,70.3,29.68,ESE,113,0.7,1.8,84,0.00,,,0.00,WUHU216HW,2013-09-08 07:32:00,
2013-09-08 02:37:00,75.2,70.1,29.68,SE,135,0.0,1.6,84,0.00,,,0.00,WUHU216HW,2013-09-08 07:37:00,
2013-09-08 02:42:00,75.2,69.8,29.68,East,90,0.0,1.1,83,0.00,,,0.00,WUHU216HW,2013-09-08 07:42:00,
2013-09-08 02:47:00,75.2,70.1,29.68,East,90,0.0,1.1,84,0.00,,,0.00,WUHU216HW,2013-09-08 07:47:00,
2013-09-08 02:52:00,74.9,69.8,29.68,ENE,68,0.0,1.1,84,0.00,,,0.00,WUHU216HW,2013-09-08 07:52:00,
2013-09-08 02:57:00,74.9,69.8,29.68,ENE,68,0.0,1.1,84,0.00,,,0.00,WUHU216HW,2013-09-08 07:57:00,
2013-09-08 03:02:00,74.9,69.8,29.67,North,0,1.1,1.1,84,0.00,,,0.00,WUHU216HW,2013-09-08 08:02:00,
2013-09-08 03:07:00,74.9,69.8,29.67,NNW,338,1.1,1.8,84,0.00,,,0.00,WUHU216HW,2013-09-08 08:07:00,
2013-09-08 03:12:00,74.9,69.8,29.67,NNW,338,0.7,1.8,84,0.00,,,0.00,WUHU216HW,2013-09-08 08:12:00,
2013-09-08 03:17:00,74.9,69.8,29.67,ESE,113,1.8,2.2,84,0.00,,,0.00,WUHU216HW,2013-09-08 08:17:00,
2013-09-08 03:22:00,75.2,70.1,29.68,SSE,158,2.9,2.9,84,0.00,,,0.00,WUHU216HW,2013-09-08 08:22:00,
2013-09-08 03:27:00,75.2,70.1,29.67,SE,135,1.6,3.1,84,0.00,,,0.00,WUHU216HW,2013-09-08 08:27:00,
2013-09-08 03:32:00,75.1,69.9,29.67,SE,135,0.4,3.1,84,0.00,,,0.00,WUHU216HW,2013-09-08 08:32:00,
2013-09-08 03:37:00,74.9,69.8,29.66,SE,135,0.0,1.6,84,0.00,,,0.00,WUHU216HW,2013-09-08 08:37:00,
2013-09-08 03:42:00,74.7,69.6,29.67,NE,45,0.0,0.7,84,0.00,,,0.00,WUHU216HW,2013-09-08 08:42:00,
2013-09-08 03:47:00,74.5,69.8,29.67,NE,45,0.9,1.1,85,0.00,,,0.00,WUHU216HW,2013-09-08 08:47:00,
2013-09-08 03:52:00,74.3,70.3,29.66,NE,45,0.9,1.3,87,0.00,,,0.00,WUHU216HW,2013-09-08 08:52:00,
2013-09-08 03:57:00,74.0,70.2,29.67,NNE,23,0.7,2.2,88,0.00,,,0.00,WUHU216HW,2013-09-08 08:57:00,
2013-09-08 04:02:00,73.8,69.8,29.66,North,0,0.4,2.2,87,0.00,,,0.00,WUHU216HW,2013-09-08 09:02:00,
2013-09-08 04:07:00,73.8,69.4,29.66,North,0,0.7,1.1,86,0.00,,,0.00,WUHU216HW,2013-09-08 09:07:00,
2013-09-08 04:12:00,73.8,69.4,29.66,North,0,1.1,1.1,86,0.00,,,0.00,WUHU216HW,2013-09-08 09:12:00,
2013-09-08 04:17:00,73.8,69.0,29.66,North,0,0.0,1.1,85,0.00,,,0.00,WUHU216HW,2013-09-08 09:17:00,
2013-09-08 04:22:00,73.8,69.0,29.66,North,0,0.0,1.1,85,0.00,,,0.00,WUHU216HW,2013-09-08 09:22:00,
2013-09-08 04:27:00,73.8,69.0,29.66,North,0,0.0,0.4,85,0.00,,,0.00,WUHU216HW,2013-09-08 09:27:00,
2013-09-08 04:32:00,74.0,69.9,29.66,North,0,0.4,0.7,87,0.00,,,0.00,WUHU216HW,2013-09-08 09:32:00,
2013-09-08 04:37:00,74.5,69.8,29.66,North,0,0.0,1.1,85,0.00,,,0.00,WUHU216HW,2013-09-08 09:37:00,
2013-09-08 04:42:00,74.9,69.8,29.66,NE,45,0.9,1.1,84,0.00,,,0.00,WUHU216HW,2013-09-08 09:42:00,
2013-09-08 04:47:00,74.5,69.4,29.66,East,90,0.4,1.1,84,0.00,,,0.00,WUHU216HW,2013-09-08 09:47:00,
2013-09-08 04:52:00,74.3,69.2,29.66,East,90,0.0,1.1,84,0.00,,,0.00,WUHU216HW,2013-09-08 09:52:00,
2013-09-08 04:57:00,73.8,68.7,29.66,East,90,0.0,0.4,84,0.00,,,0.00,WUHU216HW,2013-09-08 09:57:00,
2013-09-08 05:02:00,73.8,68.7,29.66,East,90,0.9,1.1,84,0.00,,,0.00,WUHU216HW,2013-09-08 10:02:00,
2013-09-08 05:07:00,73.4,68.7,29.66,East,90,0.0,1.1,85,0.00,,,0.00,WUHU216HW,2013-09-08 10:07:00,
2013-09-08 05:12:00,73.4,68.7,29.66,ENE,68,0.4,0.9,85,0.00,,,0.00,WUHU216HW,2013-09-08 10:12:00,
2013-09-08 05:17:00,73.4,68.7,29.66,SSE,158,0.7,1.1,85,0.00,,,0.00,WUHU216HW,2013-09-08 10:17:00,
2013-09-08 05:22:00,73.3,68.5,29.66,SE,135,0.0,1.1,85,0.00,,,0.00,WUHU216HW,2013-09-08 10:22:00,
2013-09-08 05:27:00,73.1,68.3,29.66,SE,135,0.7,0.7,85,0.00,,,0.00,WUHU216HW,2013-09-08 10:27:00,
2013-09-08 05:32:00,73.1,68.3,29.66,SE,135,0.4,0.7,85,0.00,,,0.00,WUHU216HW,2013-09-08 10:32:00,
2013-09-08 05:37:00,72.9,68.5,29.67,SE,135,1.3,1.3,86,0.00,,,0.00,WUHU216HW,2013-09-08 10:37:00,
2013-09-08 05:42:00,73.4,69.4,29.67,ESE,113,1.1,1.8,87,0.00,,,0.00,WUHU216HW,2013-09-08 10:42:00,
2013-09-08 05:47:00,73.8,69.4,29.67,SE,135,2.2,2.2,86,0.00,,,0.00,WUHU216HW,2013-09-08 10:47:00,
2013-09-08 05:52:00,73.4,69.0,29.67,SE,135,1.8,2.2,86,0.00,,,0.00,WUHU216HW,2013-09-08 10:52:00,
2013-09-08 05:57:00,73.3,68.9,29.68,ESE,113,1.1,2.2,86,0.00,,,0.00,WUHU216HW,2013-09-08 10:57:00,
2013-09-08 06:02:00,73.1,68.7,29.68,SE,135,2.7,2.7,86,0.00,,,0.00,WUHU216HW,2013-09-08 11:02:00,
2013-09-08 06:07:00,72.7,68.7,29.68,SE,135,1.6,2.9,87,0.00,,,0.00,WUHU216HW,2013-09-08 11:07:00,
2013-09-08 06:12:00,72.7,68.7,29.67,SSE,158,1.8,2.9,87,0.00,,,0.00,WUHU216HW,2013-09-08 11:12:00,
2013-09-08 06:17:00,72.7,68.9,29.67,SE,135,2.5,2.5,88,0.00,,,0.00,WUHU216HW,2013-09-08 11:17:00,
2013-09-08 06:22:00,72.5,68.8,29.67,SE,135,1.1,2.5,88,0.00,,,0.00,WUHU216HW,2013-09-08 11:22:00,
2013-09-08 06:27:00,72.5,68.8,29.68,SE,135,2.0,2.5,88,0.00,,,0.00,WUHU216HW,2013-09-08 11:27:00,
2013-09-08 06:32:00,72.5,68.8,29.68,SSE,158,1.1,2.5,88,0.00,,,0.00,WUHU216HW,2013-09-08 11:32:00,
2013-09-08 06:37:00,72.7,68.9,29.68,SE,135,0.7,2.0,88,0.00,,,0.00,WUHU216HW,2013-09-08 11:37:00,
2013-09-08 06:42:00,72.7,68.9,29.68,SSE,158,0.7,1.3,88,0.00,,,0.00,WUHU216HW,2013-09-08 11:42:00,
2013-09-08 06:47:00,72.7,68.9,29.68,SSE,158,0.9,1.3,88,0.00,,,0.00,WUHU216HW,2013-09-08 11:47:00,
2013-09-08 06:52:00,72.7,68.9,29.68,SE,135,1.1,1.3,88,0.00,,,0.00,WUHU216HW,2013-09-08 11:52:00,
2013-09-08 06:57:00,73.1,69.7,29.68,ESE,113,2.0,2.5,89,0.00,,,0.00,WUHU216HW,2013-09-08 11:57:00,
2013-09-08 07:02:00,73.8,70.4,29.68,ESE,113,1.8,2.5,89,0.00,,,0.00,WUHU216HW,2013-09-08 12:02:00,
2013-09-08 07:07:00,74.3,70.6,29.68,SE,135,1.8,2.5,88,0.00,,,0.00,WUHU216HW,2013-09-08 12:07:00,
2013-09-08 07:12:00,74.3,70.6,29.68,ESE,113,1.1,2.5,88,0.00,,,0.00,WUHU216HW,2013-09-08 12:12:00,
2013-09-08 07:17:00,74.2,70.4,29.68,SE,135,1.1,2.5,88,0.00,,,0.00,WUHU216HW,2013-09-08 12:17:00,
2013-09-08 07:22:00,74.0,70.2,29.68,ESE,113,1.6,2.0,88,0.00,,,0.00,WUHU216HW,2013-09-08 12:22:00,
2013-09-08 07:27:00,74.0,70.6,29.68,ESE,113,1.6,2.0,89,0.00,,,0.00,WUHU216HW,2013-09-08 12:27:00,
2013-09-08 07:32:00,74.0,70.6,29.68,ESE,113,1.1,1.8,89,0.00,,,0.00,WUHU216HW,2013-09-08 12:32:00,
2013-09-08 07:37:00,73.8,70.4,29.68,ESE,113,0.2,2.5,89,0.00,,,0.00,WUHU216HW,2013-09-08 12:37:00,
2013-09-08 07:42:00,73.8,70.4,29.68,East,90,0.0,2.5,89,0.00,,,0.00,WUHU216HW,2013-09-08 12:42:00,
2013-09-08 07:47:00,73.8,70.4,29.68,SW,225,0.0,0.4,89,0.00,,,0.00,WUHU216HW,2013-09-08 12:47:00,
2013-09-08 07:52:00,73.8,70.4,29.68,SW,225,0.0,0.0,89,0.00,,,0.00,WUHU216HW,2013-09-08 12:52:00,
2013-09-08 07:57:00,73.8,70.0,29.69,SW,225,0.0,0.0,88,0.00,,,0.00,WUHU216HW,2013-09-08 12:57:00,
2013-09-08 08:02:00,73.8,70.0,29.69,SSW,203,0.9,1.1,88,0.00,,,0.00,WUHU216HW,2013-09-08 13:02:00,
2013-09-08 08:07:00,74.0,70.6,29.69,South,180,1.1,2.0,89,0.00,,,0.00,WUHU216HW,2013-09-08 13:07:00,
2013-09-08 08:12:00,74.2,71.1,29.69,SSW,203,1.8,2.5,90,0.00,,,0.00,WUHU216HW,2013-09-08 13:12:00,
2013-09-08 08:17:00,74.5,71.1,29.69,South,180,1.6,3.4,89,0.00,,,0.00,WUHU216HW,2013-09-08 13:17:00,
2013-09-08 08:22:00,74.9,71.8,29.69,South,180,2.5,3.8,90,0.00,,,0.00,WUHU216HW,2013-09-08 13:22:00,
2013-09-08 08:27:00,75.8,72.4,29.70,SSE,158,4.0,4.0,89,0.00,,,0.00,WUHU216HW,2013-09-08 13:27:00,
2013-09-08 08:32:00,76.5,72.4,29.70,SE,135,4.3,5.1,87,0.00,,,0.00,WUHU216HW,2013-09-08 13:32:00,
2013-09-08 08:37:00,76.7,72.2,29.70,South,180,2.7,5.1,86,0.00,,,0.00,WUHU216HW,2013-09-08 13:37:00,
2013-09-08 08:42:00,76.7,72.2,29.70,SE,135,4.7,4.9,86,0.00,,,0.00,WUHU216HW,2013-09-08 13:42:00,
2013-09-08 08:47:00,76.9,72.4,29.70,SSE,158,4.7,5.8,86,0.00,,,0.00,WUHU216HW,2013-09-08 13:47:00,
2013-09-08 08:52:00,77.0,72.5,29.70,South,180,3.1,5.8,86,0.00,,,0.00,WUHU216HW,2013-09-08 13:52:00,
2013-09-08 08:57:00,77.4,72.9,29.70,SE,135,4.0,5.1,86,0.00,,,0.00,WUHU216HW,2013-09-08 13:57:00,
2013-09-08 09:02:00,77.4,72.5,29.70,SE,135,5.8,6.9,85,0.00,,,0.00,WUHU216HW,2013-09-08 14:02:00,
2013-09-08 09:07:00,77.2,72.4,29.70,SSE,158,3.6,6.9,85,0.00,,,0.00,WUHU216HW,2013-09-08 14:07:00,
2013-09-08 09:12:00,77.2,72.4,29.70,SE,135,6.5,6.5,85,0.00,,,0.00,WUHU216HW,2013-09-08 14:12:00,
2013-09-08 09:17:00,77.4,72.2,29.70,SE,135,4.7,6.9,84,0.00,,,0.00,WUHU216HW,2013-09-08 14:17:00,
2013-09-08 09:22:00,77.4,72.2,29.70,SE,135,7.4,7.6,84,0.00,,,0.00,WUHU216HW,2013-09-08 14:22:00,
2013-09-08 09:27:00,77.4,72.2,29.70,SE,135,4.9,8.1,84,0.00,,,0.00,WUHU216HW,2013-09-08 14:27:00,
2013-09-08 09:32:00,77.6,72.0,29.70,SE,135,2.0,8.1,83,0.00,,,0.00,WUHU216HW,2013-09-08 14:32:00,
2013-09-08 09:37:00,77.9,72.4,29.70,SSE,158,5.1,8.3,83,0.00,,,0.00,WUHU216HW,2013-09-08 14:37:00,
2013-09-08 09:42:00,78.1,72.2,29.71,SE,135,5.6,8.3,82,0.00,,,0.00,WUHU216HW,2013-09-08 14:42:00,
2013-09-08 09:47:00,78.1,72.2,29.71,SSE,158,2.5,6.9,82,0.00,,,0.00,WUHU216HW,2013-09-08 14:47:00,
2013-09-08 09:52:00,79.0,72.7,29.71,SSE,158,4.5,6.3,81,0.00,,,0.00,WUHU216HW,2013-09-08 14:52:00,
2013-09-08 09:57:00,79.6,72.9,29.71,SE,135,4.3,6.3,80,0.00,,,0.00,WUHU216HW,2013-09-08 14:57:00,
2013-09-08 10:02:00,79.6,72.9,29.71,SSE,158,1.8,5.6,80,0.00,,,0.00,WUHU216HW,2013-09-08 15:02:00,
2013-09-08 10:07:00,79.2,72.2,29.71,SE,135,3.8,6.7,79,0.00,,,0.00,WUHU216HW,2013-09-08 15:07:00,
2013-09-08 10:12:00,79.2,72.2,29.71,ENE,68,3.8,6.7,79,0.00,,,0.00,WUHU216HW,2013-09-08 15:12:00,
2013-09-08 10:17:00,79.7,72.7,29.71,SE,135,4.5,5.6,79,0.00,,,0.00,WUHU216HW,2013-09-08 15:17:00,
2013-09-08 10:22:00,80.3,72.5,29.71,ESE,113,2.9,5.6,77,0.00,,,0.00,WUHU216HW,2013-09-08 15:22:00,
2013-09-08 10:27:00,80.6,72.4,29.71,SSE,158,3.1,5.1,76,0.00,,,0.00,WUHU216HW,2013-09-08 15:27:00,
2013-09-08 10:32:00,81.0,73.2,29.71,ESE,113,1.1,5.1,77,0.00,,,0.00,WUHU216HW,2013-09-08 15:32:00,
2013-09-08 10:37:00,81.2,72.6,29.71,SE,135,2.9,4.9,75,0.00,,,0.00,WUHU216HW,2013-09-08 15:37:00,
2013-09-08 10:42:00,81.2,72.6,29.71,ENE,68,2.5,4.9,75,0.00,,,0.00,WUHU216HW,2013-09-08 15:42:00,
2013-09-08 10:47:00,81.7,73.0,29.71,East,90,1.6,3.1,75,0.00,,,0.00,WUHU216HW,2013-09-08 15:47:00,
2013-09-08 10:52:00,82.3,73.2,29.70,NE,45,4.5,6.3,74,0.00,,,0.00,WUHU216HW,2013-09-08 15:52:00,
2013-09-08 10:57:00,82.4,73.3,29.70,SE,135,3.4,7.2,74,0.00,,,0.00,WUHU216HW,2013-09-08 15:57:00,
2013-09-08 11:02:00,82.4,72.9,29.70,SSW,203,3.4,8.1,73,0.00,,,0.00,WUHU216HW,2013-09-08 16:02:00,
2013-09-08 11:07:00,83.3,73.4,29.70,South,180,7.8,8.1,72,0.00,,,0.00,WUHU216HW,2013-09-08 16:07:00,
2013-09-08 11:12:00,84.2,73.4,29.70,ESE,113,5.1,7.8,70,0.00,,,0.00,WUHU216HW,2013-09-08 16:12:00,
2013-09-08 11:17:00,84.4,73.6,29.70,SSE,158,1.1,7.8,70,0.00,,,0.00,WUHU216HW,2013-09-08 16:17:00,
2013-09-08 11:22:00,83.9,73.1,29.70,ESE,113,4.7,5.8,70,0.00,,,0.00,WUHU216HW,2013-09-08 16:22:00,
2013-09-08 11:27:00,83.7,72.9,29.70,SSE,158,3.6,6.7,70,0.00,,,0.00,WUHU216HW,2013-09-08 16:27:00,
2013-09-08 11:32:00,83.7,73.3,29.70,ENE,68,1.8,6.7,71,0.00,,,0.00,WUHU216HW,2013-09-08 16:32:00,
2013-09-08 11:37:00,83.9,73.1,29.70,SSE,158,4.3,7.6,70,0.00,,,0.00,WUHU216HW,2013-09-08 16:37:00,
2013-09-08 11:42:00,84.2,72.5,29.70,SSE,158,6.9,8.9,68,0.00,,,0.00,WUHU216HW,2013-09-08 16:42:00,
2013-09-08 11:47:00,84.6,72.5,29.70,ESE,113,2.5,9.2,67,0.00,,,0.00,WUHU216HW,2013-09-08 16:47:00,
2013-09-08 11:52:00,84.8,72.6,29.70,South,180,4.7,9.2,67,0.00,,,0.00,WUHU216HW,2013-09-08 16:52:00,
2013-09-08 11:57:00,84.8,72.6,29.69,SE,135,9.4,9.8,67,0.00,,,0.00,WUHU216HW,2013-09-08 16:57:00,
2013-09-08 12:02:00,84.8,72.6,29.69,ESE,113,8.1,9.8,67,0.00,,,0.00,WUHU216HW,2013-09-08 17:02:00,
2013-09-08 12:07:00,84.8,72.2,29.69,SE,135,6.5,10.1,66,0.00,,,0.00,WUHU216HW,2013-09-08 17:07:00,
2013-09-08 12:12:00,85.7,72.1,29.69,ESE,113,8.5,10.1,64,0.00,,,0.00,WUHU216HW,2013-09-08 17:12:00,
2013-09-08 12:17:00,86.0,72.5,29.69,ESE,113,8.7,8.7,64,0.00,,,0.00,WUHU216HW,2013-09-08 17:17:00,
2013-09-08 12:22:00,87.1,72.1,29.69,SE,135,6.9,8.7,61,0.00,,,0.00,WUHU216HW,2013-09-08 17:22:00,
2013-09-08 12:27:00,88.4,71.7,29.68,SE,135,6.0,10.5,58,0.00,,,0.00,WUHU216HW,2013-09-08 17:27:00,
2013-09-08 12:32:00,88.9,71.7,29.68,SE,135,6.3,10.5,57,0.00,,,0.00,WUHU216HW,2013-09-08 17:32:00,
2013-09-08 12:37:00,89.1,71.4,29.68,SSE,158,11.4,11.4,56,0.00,,,0.00,WUHU216HW,2013-09-08 17:37:00,
2013-09-08 12:42:00,89.3,71.5,29.68,South,180,7.6,11.4,56,0.00,,,0.00,WUHU216HW,2013-09-08 17:42:00,
2013-09-08 12:47:00,89.1,71.9,29.67,South,180,3.4,11.4,57,0.00,,,0.00,WUHU216HW,2013-09-08 17:47:00,
2013-09-08 12:52:00,88.7,69.4,29.67,SSE,158,6.5,8.5,53,0.00,,,0.00,WUHU216HW,2013-09-08 17:52:00,
2013-09-08 12:57:00,88.2,70.6,29.67,SE,135,7.6,8.7,56,0.00,,,0.00,WUHU216HW,2013-09-08 17:57:00,
2013-09-08 13:02:00,87.8,70.2,29.67,South,180,6.9,8.7,56,0.00,,,0.00,WUHU216HW,2013-09-08 18:02:00,
2013-09-08 13:07:00,88.4,70.1,29.67,SE,135,9.6,11.4,55,0.00,,,0.00,WUHU216HW,2013-09-08 18:07:00,
2013-09-08 13:12:00,88.9,70.7,29.66,South,180,4.5,11.4,55,0.00,,,0.00,WUHU216HW,2013-09-08 18:12:00,
2013-09-08 13:17:00,88.9,70.1,29.66,SE,135,8.7,12.3,54,0.00,,,0.00,WUHU216HW,2013-09-08 18:17:00,
2013-09-08 13:22:00,88.6,69.2,29.66,SSE,158,10.5,12.3,53,0.00,,,0.00,WUHU216HW,2013-09-08 18:22:00,
2013-09-08 13:27:00,89.3,70.4,29.66,SSE,158,5.6,10.5,54,0.00,,,0.00,WUHU216HW,2013-09-08 18:27:00,
2013-09-08 13:32:00,90.2,70.1,29.66,SSE,158,5.4,10.5,52,0.00,,,0.00,WUHU216HW,2013-09-08 18:32:00,
2013-09-08 13:37:00,90.5,69.9,29.66,SSW,203,4.7,7.4,51,0.00,,,0.00,WUHU216HW,2013-09-08 18:37:00,
2013-09-08 13:42:00,91.1,69.8,29.66,SE,135,8.1,9.2,50,0.00,,,0.00,WUHU216HW,2013-09-08 18:42:00,
2013-09-08 13:47:00,91.1,69.8,29.66,SW,225,6.7,9.2,50,0.00,,,0.00,WUHU216HW,2013-09-08 18:47:00,
2013-09-08 13:52:00,90.0,69.0,29.66,ESE,113,6.7,11.0,50,0.00,,,0.00,WUHU216HW,2013-09-08 18:52:00,
2013-09-08 13:57:00,89.8,69.3,29.65,South,180,8.7,11.0,51,0.00,,,0.00,WUHU216HW,2013-09-08 18:57:00,
2013-09-08 14:02:00,90.5,69.4,29.64,SSE,158,5.8,8.7,50,0.00,,,0.00,WUHU216HW,2013-09-08 19:02:00,
2013-09-08 14:07:00,90.7,70.1,29.64,SSW,203,8.5,9.8,51,0.00,,,0.00,WUHU216HW,2013-09-08 19:07:00,
2013-09-08 14:12:00,91.1,69.8,29.64,SSE,158,7.6,13.0,50,0.00,,,0.00,WUHU216HW,2013-09-08 19:12:00,
2013-09-08 14:17:00,90.4,68.6,29.64,SSE,158,4.3,13.0,49,0.00,,,0.00,WUHU216HW,2013-09-08 19:17:00,
2013-09-08 14:22:00,90.4,69.8,29.64,SSE,158,8.7,10.3,51,0.00,,,0.00,WUHU216HW,2013-09-08 19:22:00,
2013-09-08 14:27:00,90.7,69.0,29.63,SSE,158,9.4,12.8,49,0.00,,,0.00,WUHU216HW,2013-09-08 19:27:00,
2013-09-08 14:32:00,91.1,69.2,29.63,SW,225,5.4,12.8,49,0.00,,,0.00,WUHU216HW,2013-09-08 19:32:00,
2013-09-08 14:37:00,92.5,69.2,29.63,SE,135,4.9,9.2,47,0.00,,,0.00,WUHU216HW,2013-09-08 19:37:00,
2013-09-08 14:42:00,92.9,69.0,29.63,South,180,6.0,10.7,46,0.00,,,0.00,WUHU216HW,2013-09-08 19:42:00,
2013-09-08 14:47:00,92.7,68.8,29.62,SSE,158,9.8,10.7,46,0.00,,,0.00,WUHU216HW,2013-09-08 19:47:00,
2013-09-08 14:52:00,92.5,69.2,29.62,SSE,158,3.4,13.4,47,0.00,,,0.00,WUHU216HW,2013-09-08 19:52:00,
2013-09-08 14:57:00,93.1,69.0,29.62,SSE,158,10.5,13.4,46,0.00,,,0.00,WUHU216HW,2013-09-08 19:57:00,
2013-09-08 15:02:00,92.2,69.0,29.62,SSE,158,4.9,12.8,47,0.00,,,0.00,WUHU216HW,2013-09-08 20:02:00,
2013-09-08 15:07:00,92.2,68.2,29.61,SSE,158,6.7,12.8,46,0.00,,,0.00,WUHU216HW,2013-09-08 20:07:00,
2013-09-08 15:12:00,92.7,68.8,29.62,SE,135,10.5,12.1,46,0.00,,,0.00,WUHU216HW,2013-09-08 20:12:00,
2013-09-08 15:17:00,92.9,69.6,29.62,ENE,68,10.1,15.2,47,0.00,,,0.00,WUHU216HW,2013-09-08 20:17:00,
2013-09-08 15:22:00,92.9,69.0,29.61,SE,135,11.2,15.2,46,0.00,,,0.00,WUHU216HW,2013-09-08 20:22:00,
2013-09-08 15:27:00,92.5,68.0,29.62,SE,135,9.8,12.5,45,0.00,,,0.00,WUHU216HW,2013-09-08 20:27:00,
2013-09-08 15:32:00,91.4,68.2,29.62,SE,135,9.6,13.6,47,0.00,,,0.00,WUHU216HW,2013-09-08 20:32:00,
2013-09-08 15:37:00,91.1,69.2,29.62,South,180,11.9,13.9,49,0.00,,,0.00,WUHU216HW,2013-09-08 20:37:00,
2013-09-08 15:42:00,91.8,69.8,29.62,SE,135,7.6,14.1,49,0.00,,,0.00,WUHU216HW,2013-09-08 20:42:00,
2013-09-08 15:47:00,92.2,69.6,29.61,SSE,158,6.9,14.1,48,0.00,,,0.00,WUHU216HW,2013-09-08 20:47:00,
2013-09-08 15:52:00,91.8,69.2,29.61,SE,135,9.8,15.0,48,0.00,,,0.00,WUHU216HW,2013-09-08 20:52:00,
2013-09-08 15:57:00,91.8,69.2,29.61,South,180,13.0,15.0,48,0.00,,,0.00,WUHU216HW,2013-09-08 20:57:00,
2013-09-08 16:02:00,91.4,69.0,29.61,SE,135,9.2,13.0,48,0.00,,,0.00,WUHU216HW,2013-09-08 21:02:00,
2013-09-08 16:07:00,90.4,69.8,29.61,South,180,9.4,14.3,51,0.00,,,0.00,WUHU216HW,2013-09-08 21:07:00,
2013-09-08 16:12:00,90.0,70.0,29.61,SSE,158,6.3,14.3,52,0.00,,,0.00,WUHU216HW,2013-09-08 21:12:00,
2013-09-08 16:17:00,89.8,70.4,29.61,South,180,7.4,12.8,53,0.00,,,0.00,WUHU216HW,2013-09-08 21:17:00,
2013-09-08 16:22:00,90.0,70.6,29.60,SSW,203,6.9,11.4,53,0.00,,,0.00,WUHU216HW,2013-09-08 21:22:00,
2013-09-08 16:27:00,89.6,70.7,29.60,South,180,7.4,9.6,54,0.00,,,0.00,WUHU216HW,2013-09-08 21:27:00,
2013-09-08 16:32:00,89.5,70.6,29.60,South,180,7.2,12.8,54,0.00,,,0.00,WUHU216HW,2013-09-08 21:32:00,
2013-09-08 16:37:00,89.5,70.0,29.59,SSE,158,11.6,12.8,53,0.00,,,0.00,WUHU216HW,2013-09-08 21:37:00,
2013-09-08 16:42:00,89.6,70.7,29.60,SSW,203,8.1,11.6,54,0.00,,,0.00,WUHU216HW,2013-09-08 21:42:00,
2013-09-08 16:47:00,90.2,70.7,29.59,SSW,203,9.2,12.1,53,0.00,,,0.00,WUHU216HW,2013-09-08 21:47:00,
2013-09-08 16:52:00,90.4,70.8,29.59,SSE,158,12.5,12.5,53,0.00,,,0.00,WUHU216HW,2013-09-08 21:52:00,
2013-09-08 16:57:00,90.4,70.8,29.59,South,180,9.2,12.5,53,0.00,,,0.00,WUHU216HW,2013-09-08 21:57:00,
2013-09-08 17:02:00,90.2,70.7,29.59,South,180,10.5,11.6,53,0.00,,,0.00,WUHU216HW,2013-09-08 22:02:00,
2013-09-08 17:07:00,89.8,70.9,29.59,SSW,203,7.6,10.5,54,0.00,,,0.00,WUHU216HW,2013-09-08 22:07:00,
2013-09-08 17:12:00,89.6,70.7,29.60,SSW,203,5.6,10.5,54,0.00,,,0.00,WUHU216HW,2013-09-08 22:12:00,
2013-09-08 17:17:00,89.6,70.7,29.60,South,180,5.6,9.8,54,0.00,,,0.00,WUHU216HW,2013-09-08 22:17:00,
2013-09-08 17:22:00,89.5,70.6,29.60,SW,225,3.6,8.1,54,0.00,,,0.00,WUHU216HW,2013-09-08 22:22:00,
2013-09-08 17:27:00,89.5,70.0,29.60,South,180,5.1,8.1,53,0.00,,,0.00,WUHU216HW,2013-09-08 22:27:00,
2013-09-08 17:32:00,89.1,69.8,29.60,SW,225,5.4,8.3,53,0.00,,,0.00,WUHU216HW,2013-09-08 22:32:00,
2013-09-08 17:37:00,89.1,70.3,29.60,SW,225,6.7,8.3,54,0.00,,,0.00,WUHU216HW,2013-09-08 22:37:00,
2013-09-08 17:42:00,89.5,70.6,29.60,SSW,203,4.9,8.5,54,0.00,,,0.00,WUHU216HW,2013-09-08 22:42:00,
2013-09-08 17:47:00,89.6,70.2,29.59,SW,225,5.6,8.5,53,0.00,,,0.00,WUHU216HW,2013-09-08 22:47:00,
2013-09-08 17:52:00,89.6,70.2,29.59,SSW,203,2.2,8.7,53,0.00,,,0.00,WUHU216HW,2013-09-08 22:52:00,
2013-09-08 17:57:00,89.6,70.2,29.59,South,180,7.2,10.3,53,0.00,,,0.00,WUHU216HW,2013-09-08 22:57:00,
2013-09-08 18:02:00,90.0,70.6,29.59,South,180,6.0,10.3,53,0.00,,,0.00,WUHU216HW,2013-09-08 23:02:00,
2013-09-08 18:07:00,89.8,70.4,29.59,SE,135,5.4,12.1,53,0.00,,,0.00,WUHU216HW,2013-09-08 23:07:00,
2013-09-08 18:12:00,89.6,69.7,29.59,SSE,158,8.5,12.1,52,0.00,,,0.00,WUHU216HW,2013-09-08 23:12:00,
2013-09-08 18:17:00,89.1,69.8,29.60,South,180,9.2,9.8,53,0.00,,,0.00,WUHU216HW,2013-09-08 23:17:00,
2013-09-08 18:22:00,88.6,69.8,29.60,South,180,4.7,9.8,54,0.00,,,0.00,WUHU216HW,2013-09-08 23:22:00,
2013-09-08 18:27:00,88.6,70.3,29.60,South,180,4.9,9.2,55,0.00,,,0.00,WUHU216HW,2013-09-08 23:27:00,
2013-09-08 18:32:00,88.2,70.6,29.60,SSW,203,6.9,9.2,56,0.00,,,0.00,WUHU216HW,2013-09-08 23:32:00,
2013-09-08 18:37:00,87.7,70.6,29.60,SSE,158,6.7,12.5,57,0.00,,,0.00,WUHU216HW,2013-09-08 23:37:00,
2013-09-08 18:42:00,87.7,71.1,29.61,SSE,158,9.6,14.1,58,0.00,,,0.00,WUHU216HW,2013-09-08 23:42:00,
2013-09-08 18:47:00,87.5,70.9,29.61,SW,225,9.8,14.1,58,0.00,,,0.00,WUHU216HW,2013-09-08 23:47:00,
2013-09-08 18:52:00,87.5,70.9,29.62,SSE,158,8.1,12.8,58,0.00,,,0.00,WUHU216HW,2013-09-08 23:52:00,
2013-09-08 18:57:00,86.9,70.9,29.62,South,180,6.3,12.8,59,0.00,,,0.00,WUHU216HW,2013-09-08 23:57:00,
2013-09-08 19:02:00,86.6,70.6,29.62,SW,225,9.8,12.5,59,0.00,,,0.00,WUHU216HW,2013-09-09 00:02:00,
2013-09-08 19:07:00,86.2,70.7,29.62,South,180,12.3,12.8,60,0.00,,,0.00,WUHU216HW,2013-09-09 00:07:00,
2013-09-08 19:12:00,85.7,70.8,29.62,South,180,6.5,13.2,61,0.00,,,0.00,WUHU216HW,2013-09-09 00:12:00,
2013-09-08 19:17:00,85.3,70.8,29.62,SSE,158,6.7,13.2,62,0.00,,,0.00,WUHU216HW,2013-09-09 00:17:00,
2013-09-08 19:22:00,85.0,70.5,29.62,SSW,203,6.0,10.7,62,0.00,,,0.00,WUHU216HW,2013-09-09 00:22:00,
2013-09-08 19:27:00,84.8,70.8,29.63,South,180,6.9,9.4,63,0.00,,,0.00,WUHU216HW,2013-09-09 00:27:00,
2013-09-08 19:32:00,84.6,70.7,29.63,SSE,158,8.3,9.4,63,0.00,,,0.00,WUHU216HW,2013-09-09 00:32:00,
2013-09-08 19:37:00,84.4,70.5,29.63,SSE,158,3.4,9.2,63,0.00,,,0.00,WUHU216HW,2013-09-09 00:37:00,
2013-09-08 19:42:00,84.6,71.1,29.63,SSW,203,5.6,9.4,64,0.00,,,0.00,WUHU216HW,2013-09-09 00:42:00,
2013-09-08 19:47:00,84.8,70.8,29.63,SSE,158,3.4,9.4,63,0.00,,,0.00,WUHU216HW,2013-09-09 00:47:00,
2013-09-08 19:52:00,84.8,71.3,29.63,SSE,158,3.6,7.6,64,0.00,,,0.00,WUHU216HW,2013-09-09 00:52:00,
2013-09-08 19:57:00,84.6,71.1,29.63,SE,135,4.5,7.6,64,0.00,,,0.00,WUHU216HW,2013-09-09 00:57:00,
2013-09-08 20:02:00,84.1,71.0,29.63,South,180,5.8,7.4,65,0.00,,,0.00,WUHU216HW,2013-09-09 01:02:00,
2013-09-08 20:07:00,83.7,71.1,29.62,SSW,203,6.3,7.4,66,0.00,,,0.00,WUHU216HW,2013-09-09 01:07:00,
2013-09-08 20:12:00,83.5,71.4,29.63,South,180,5.4,6.3,67,0.00,,,0.00,WUHU216HW,2013-09-09 01:12:00,
2013-09-08 20:17:00,83.3,71.2,29.63,SE,135,3.8,6.3,67,0.00,,,0.00,WUHU216HW,2013-09-09 01:17:00,
2013-09-08 20:22:00,83.2,71.0,29.63,SSE,158,3.6,5.4,67,0.00,,,0.00,WUHU216HW,2013-09-09 01:22:00,
2013-09-08 20:27:00,82.8,71.1,29.63,SSE,158,3.4,5.4,68,0.00,,,0.00,WUHU216HW,2013-09-09 01:27:00,
2013-09-08 20:32:00,82.8,71.1,29.63,SSE,158,3.6,4.7,68,0.00,,,0.00,WUHU216HW,2013-09-09 01:32:00,
2013-09-08 20:37:00,82.6,70.9,29.63,SSE,158,3.1,4.0,68,0.00,,,0.00,WUHU216HW,2013-09-09 01:37:00,
2013-09-08 20:42:00,82.4,70.7,29.64,SSE,158,2.9,4.0,68,0.00,,,0.00,WUHU216HW,2013-09-09 01:42:00,
2013-09-08 20:47:00,82.4,70.7,29.63,SSE,158,1.8,4.0,68,0.00,,,0.00,WUHU216HW,2013-09-09 01:47:00,
2013-09-08 20:52:00,82.4,70.7,29.63,SE,135,1.3,3.4,68,0.00,,,0.00,WUHU216HW,2013-09-09 01:52:00,
2013-09-08 20:57:00,82.3,70.6,29.63,South,180,2.5,2.7,68,0.00,,,0.00,WUHU216HW,2013-09-09 01:57:00,
2013-09-08 21:02:00,82.1,70.4,29.64,SSE,158,1.8,3.4,68,0.00,,,0.00,WUHU216HW,2013-09-09 02:02:00,
2013-09-08 21:07:00,81.7,70.6,29.64,SE,135,2.2,3.4,69,0.00,,,0.00,WUHU216HW,2013-09-09 02:07:00,
2013-09-08 21:12:00,81.5,70.4,29.64,SSE,158,2.0,2.9,69,0.00,,,0.00,WUHU216HW,2013-09-09 02:12:00,
2013-09-08 21:17:00,81.4,70.7,29.64,SE,135,3.4,3.4,70,0.00,,,0.00,WUHU216HW,2013-09-09 02:17:00,
2013-09-08 21:22:00,81.2,70.5,29.64,SSE,158,3.4,3.6,70,0.00,,,0.00,WUHU216HW,2013-09-09 02:22:00,
2013-09-08 21:27:00,81.0,70.7,29.64,SE,135,4.0,4.0,71,0.00,,,0.00,WUHU216HW,2013-09-09 02:27:00,
2013-09-08 21:32:00,80.8,70.6,29.65,SSE,158,3.1,4.0,71,0.00,,,0.00,WUHU216HW,2013-09-09 02:32:00,
2013-09-08 21:37:00,80.8,70.6,29.65,SE,135,3.8,5.4,71,0.00,,,0.00,WUHU216HW,2013-09-09 02:37:00,
2013-09-08 21:42:00,80.8,70.6,29.65,SE,135,3.4,5.4,71,0.00,,,0.00,WUHU216HW,2013-09-09 02:42:00,
2013-09-08 21:47:00,81.0,70.7,29.65,SSW,203,4.7,4.7,71,0.00,,,0.00,WUHU216HW,2013-09-09 02:47:00,
2013-09-08 21:52:00,81.2,70.9,29.65,SSW,203,4.0,7.6,71,0.00,,,0.00,WUHU216HW,2013-09-09 02:52:00,
2013-09-08 21:57:00,80.8,70.6,29.65,SSE,158,5.4,7.6,71,0.00,,,0.00,WUHU216HW,2013-09-09 02:57:00,
2013-09-08 22:02:00,80.5,70.2,29.66,SSE,158,3.4,6.5,71,0.00,,,0.00,WUHU216HW,2013-09-09 03:02:00,
2013-09-08 22:07:00,80.3,70.0,29.66,SSE,158,1.8,6.5,71,0.00,,,0.00,WUHU216HW,2013-09-09 03:07:00,
2013-09-08 22:12:00,80.3,70.0,29.66,SSE,158,4.5,8.1,71,0.00,,,0.00,WUHU216HW,2013-09-09 03:12:00,
2013-09-08 22:17:00,80.3,70.0,29.66,SSE,158,5.6,8.1,71,0.00,,,0.00,WUHU216HW,2013-09-09 03:17:00,
2013-09-08 22:22:00,80.1,69.8,29.66,SE,135,7.4,7.6,71,0.00,,,0.00,WUHU216HW,2013-09-09 03:22:00,
2013-09-08 22:27:00,79.9,69.7,29.66,SSW,203,5.8,9.8,71,0.00,,,0.00,WUHU216HW,2013-09-09 03:27:00,
2013-09-08 22:32:00,79.9,69.7,29.66,SSW,203,4.3,9.8,71,0.00,,,0.00,WUHU216HW,2013-09-09 03:32:00,
2013-09-08 22:37:00,79.9,69.7,29.65,South,180,6.3,8.7,71,0.00,,,0.00,WUHU216HW,2013-09-09 03:37:00,
2013-09-08 22:42:00,79.9,69.7,29.66,SSE,158,3.4,7.6,71,0.00,,,0.00,WUHU216HW,2013-09-09 03:42:00,
2013-09-08 22:47:00,80.1,69.8,29.66,South,180,4.7,7.6,71,0.00,,,0.00,WUHU216HW,2013-09-09 03:47:00,
2013-09-08 22:52:00,80.1,69.5,29.66,South,180,6.3,7.8,70,0.00,,,0.00,WUHU216HW,2013-09-09 03:52:00,
2013-09-08 22:57:00,79.9,69.7,29.66,SW,225,6.3,7.8,71,0.00,,,0.00,WUHU216HW,2013-09-09 03:57:00,
2013-09-08 23:01:00,79.7,69.5,29.66,SW,225,6.7,7.6,71,0.00,,,0.00,WUHU216HW,2013-09-09 04:01:00,
2013-09-08 23:02:00,79.7,69.5,29.66,South,180,3.6,7.6,71,0.00,,,0.00,WUHU216HW,2013-09-09 04:02:00,
2013-09-08 23:07:00,79.6,69.3,29.66,South,180,2.9,6.7,71,0.00,,,0.00,WUHU216HW,2013-09-09 04:07:00,
2013-09-08 23:12:00,79.4,69.1,29.66,SSE,158,3.6,6.0,71,0.00,,,0.00,WUHU216HW,2013-09-09 04:12:00,
2013-09-08 23:17:00,79.2,68.9,29.65,South,180,6.3,6.9,71,0.00,,,0.00,WUHU216HW,2013-09-09 04:17:00,
2013-09-08 23:22:00,79.2,68.9,29.65,South,180,6.9,8.3,71,0.00,,,0.00,WUHU216HW,2013-09-09 04:22:00,
2013-09-08 23:27:00,79.0,68.8,29.65,South,180,4.3,8.5,71,0.00,,,0.00,WUHU216HW,2013-09-09 04:27:00,
2013-09-08 23:32:00,79.2,68.9,29.65,South,180,5.8,8.9,71,0.00,,,0.00,WUHU216HW,2013-09-09 04:32:00,
2013-09-08 23:37:00,79.0,69.2,29.65,South,180,5.6,8.9,72,0.00,,,0.00,WUHU216HW,2013-09-09 04:37:00,
2013-09-08 23:42:00,78.8,69.0,29.66,SE,135,4.5,6.9,72,0.00,,,0.00,WUHU216HW,2013-09-09 04:42:00,
2013-09-08 23:48:00,78.7,69.2,29.66,SSW,203,4.7,7.2,73,0.00,,,0.00,WUHU216HW,2013-09-09 04:48:00,
2013-09-08 23:53:00,78.7,69.2,29.65,South,180,4.0,7.2,73,0.00,,,0.00,WUHU216HW,2013-09-09 04:53:00,
2013-09-08 23:58:00,78.5,69.5,29.65,South,180,5.1,6.9,74,0.00,,,0.00,WUHU216HW,2013-09-09 04:58:00,